Airfield :
LOGIN :

Register | Disclaimer

   EN    FR    IT 

 










Legend :    VFR   Marginal VFR   IFR   Intensive IFR   Very Intensive IFR
Visi :
Ceiling :
>= 8 km
>= 3000ft
5 to 8 km
1000 to 3000 ft
1500m to 5 km
500 to 1000 ft
800 to 1500m
200 to 500 ft
< 800m
< 200 ft
Symbols :   Thunderstorms  Fog  Heavy snow  Heavy precipitations  Wind > 20 kt
SIGMETs :     Misc.  Thunderstorms  Icing  Turbulence  Mountain Waves  Volcanic Ashes







- Airport Elevation : 240 ft
- IATA code : VLC


LEVC - Valencia Manises

CURRENT METAR :
  • 170200Z 21008KT 190V300 CAVOK 12/04 Q1024 NOSIG

EXPIRED METARs :
  • 170130Z 22008KT 190V290 CAVOK 13/03 Q1024 NOSIG
  • 170100Z 21008KT CAVOK 13/03 Q1024 NOSIG
  • 170030Z 23007KT CAVOK 13/03 Q1024 NOSIG
  • 170000Z 22006KT 190V250 CAVOK 14/03 Q1024 NOSIG
  • 162330Z 26007KT CAVOK 14/04 Q1023 NOSIG

TAF TAF LEVC
Valid from the 17 at 00:00 until the 18 at 00:00 UTC


162300Z 1700/1724 27007KT 9999 FEW040 TX17/1713Z TN04/1706Z
No reported NOTAMs for that airfield.
1 SIGMET reported for the Barcelona FIR (LECB) :
 
Severe turbulence
LECB SIGMET 1 VALID 170132/170530 LEVA
LECB BARCELONA FIR/UIR SEV TURB FCST WI N41 E00030 - N4220 E003 - N42 E004 - N41 E002 - N41 E00030 FL030/280 STNR NC=



MET'MAP, your aeronautical weather chart ! - Copyright ORBIFLY December 2007 - Disclaimer

ORBIFLY MET'MAP TEAM :

Programming & Development : Alexandra Zaïnal
Concept & Development : Baudouin d'Aumeries
Co-Development & Prog : Marc-Olivier Méhu
Technical & hardware support : Manuel Goepfert

Contact : metmap@orbifly.com




SOURCES & CREDITS :

   NOAA